Mid Fortune — ZGCG8 — position and weather

sailwx.info

Track history (hours):
 
Tides and Currents Weather Stations Pressure Air Temp Water Temp Dewpoint Dewpoint Depression Visibility Wind Speed Wind Dir Waves Ship Positions

Mid Fortune

Last reported at 2014-Nov-13 23:03 UTC. Time now 2014-Nov-29 05:11 UTC.
Position N 50°07' W 002°10'.
Warning: this ship's position is 15 days out of date.

Length 147 m; draft 9.5 m.

Type: Tanker. MMSI: 319182000.

Date/timePositionNaut miles runAvg speedWind from/ knotsBaromVisibWave heightAir tempDewpointWater temp
2014-Nov-13 23:03N 50°07' W 002°10'8113.7
2014-Nov-13 17:05N 50°27' W 000°07'813.8
2014-Nov-13 16:31N 50°30' E 000°05'1313.2
2014-Nov-13 15:33N 50°34' E 000°24'1212.4
2014-Nov-13 14:33N 50°39' E 000°42'1212.0
2014-Nov-13 13:33N 50°46' E 000°57'1211.9
2014-Nov-13 12:32N 50°53' E 001°13'1312.8
2014-Nov-13 11:34N 51°02' E 001°27'1414.2
2014-Nov-13 10:33N 51°12' E 001°43'1413.9
2014-Nov-13 09:34N 51°24' E 001°54'1313.2
2014-Nov-13 08:33N 51°34' E 002°07'2221.3
2014-Nov-13 07:32N 51°50' E 002°30'43611.8
2014-Nov-11 18:30N 57°55' E 009°26'1313.1
2014-Nov-11 17:30N 57°55' E 009°51'1413.7
2014-Nov-11 16:31N 57°55' E 010°16'1313.5
2014-Nov-11 15:33N 57°52' E 010°40'1313.3
2014-Nov-11 14:33N 57°44' E 011°00'1414.3
2014-Nov-11 13:33N 57°34' E 011°19'1414.1
2014-Nov-11 12:33N 57°22' E 011°32'1414.3
2014-Nov-11 11:33N 57°08' E 011°40'15910.6
2014-Nov-10 20:33N 54°29' E 011°37'1312.5
2014-Nov-10 19:33N 54°26' E 011°58'4411.0
2014-Nov-10 15:31N 54°48' E 013°05'5513.9
2014-Nov-10 11:33N 54°41' E 014°40'1413.8
2014-Nov-10 10:33N 54°46' E 015°01'1613.6
2014-Nov-10 09:21N 54°53' E 015°27'  
2014-Nov-07 19:17N 55°40' E 015°46'1114.7
2014-Nov-07 18:33N 55°37' E 015°28'1514.7
2014-Nov-07 17:33N 55°32' E 015°04'1514.8
2014-Nov-07 16:33N 55°24' E 014°41'1514.9
2014-Nov-07 15:33N 55°13' E 014°25'4314.3
2014-Nov-07 12:33N 55°11' E 013°10'1514.7
2014-Nov-07 11:33N 55°16' E 012°45'1111.4
2014-Nov-07 10:34N 55°27' E 012°40'1010.0
2014-Nov-07 09:34N 55°37' E 012°42'1111.2
2014-Nov-07 08:34N 55°48' E 012°42'1211.8
2014-Nov-07 07:34N 56°00' E 012°40'1010.2
2014-Nov-07 06:34N 56°08' E 012°28'1010.3
2014-Nov-07 05:33N 56°14' E 012°13'8 8.3
2014-Nov-07 04:34N 56°19' E 012°02'5611.1
2014-Nov-06 23:34N 57°12' E 011°33'1111.5
2014-Nov-06 22:34N 57°23' E 011°26'1110.9
2014-Nov-06 21:33N 57°32' E 011°14'1111.2
2014-Nov-06 20:33N 57°40' E 010°59'1111.3
2014-Nov-06 19:33N 57°47' E 010°43'1111.0
2014-Nov-06 18:33N 57°50' E 010°23'218 9.4
2014-Nov-05 19:23N 54°43' E 007°02'1012.0
2014-Nov-05 18:33N 54°35' E 007°12'1211.9
2014-Nov-05 17:34N 54°25' E 007°23'1212.2
2014-Nov-05 16:33N 54°15' E 007°35'1312.7
2014-Nov-05 15:33N 54°07' E 007°52'1111.2
2014-Nov-05 14:33N 54°01' E 008°08'1514.6
2014-Nov-05 13:34N 53°58' E 008°32'1313.2
2014-Nov-05 12:33N 53°50' E 008°50'1111.4
2014-Nov-05 11:33N 53°53' E 009°09'9 8.8
2014-Nov-05 10:33N 53°49' E 009°22'9 9.1
2014-Nov-05 09:33N 53°41' E 009°30'9 9.4
2014-Nov-05 08:33N 53°34' E 009°40'1010.4
2014-Nov-05 07:33N 53°33' E 009°58'1 0.7
2014-Nov-05 06:28N 53°32' E 009°59'0 0.0
2014-Nov-05 05:16N 53°32' E 009°59'0 0.0
2014-Nov-05 04:31N 53°32' E 009°59'0 0.0
2014-Nov-05 03:31N 53°32' E 009°59'0 0.0
2014-Nov-05 02:31N 53°32' E 009°59'0 0.0
2014-Nov-05 01:31N 53°32' E 009°59'0 0.0
2014-Nov-05 00:31N 53°32' E 009°59'0 0.0
2014-Nov-04 23:31N 53°32' E 009°59'0 0.0
2014-Nov-04 22:31N 53°32' E 009°59'0 0.0
2014-Nov-04 21:28N 53°32' E 009°59'0 0.0
2014-Nov-04 20:31N 53°32' E 009°59'0 0.0
2014-Nov-04 19:31N 53°32' E 009°59'0 0.0
2014-Nov-04 18:31N 53°32' E 009°59'0 0.0
2014-Nov-04 17:31N 53°32' E 009°59'0 0.0
2014-Nov-04 16:25N 53°32' E 009°59'0 0.0
2014-Nov-04 15:25N 53°32' E 009°59'0 0.0
2014-Nov-04 14:32N 53°32' E 009°59'0 0.0
2014-Nov-04 13:25N 53°32' E 009°59'0 0.0
2014-Nov-04 12:31N 53°32' E 009°59'0 0.0
2014-Nov-04 11:28N 53°32' E 009°59'0 0.0
2014-Nov-04 10:28N 53°32' E 009°59'0 0.0
2014-Nov-04 09:25N 53°32' E 009°59'0 0.0
2014-Nov-04 08:31N 53°32' E 009°59'0 0.0
2014-Nov-04 07:28N 53°32' E 009°59'0 0.0
2014-Nov-04 06:28N 53°32' E 009°59'0 0.0
2014-Nov-04 05:31N 53°32' E 009°59'0 0.0
2014-Nov-04 04:31N 53°32' E 009°59'0 0.0
2014-Nov-04 03:31N 53°32' E 009°59'0 0.0
2014-Nov-04 02:31N 53°32' E 009°59'0 0.0
2014-Nov-04 01:31N 53°32' E 009°59'0 0.0
2014-Nov-04 00:19N 53°32' E 009°59'0 0.0
2014-Nov-03 23:31N 53°32' E 009°59'  
Track history (hours):
 
Tides and Currents Weather Stations Pressure Air Temp Water Temp Dewpoint Dewpoint Depression Visibility Wind Speed Wind Dir Waves Ship Positions

Mid Fortune

Last reported at 2014-Nov-13 23:03 UTC. Time now 2014-Nov-29 05:11 UTC.
Position N 50°07' W 002°10'.
Warning: this ship's position is 15 days out of date.

Length 147 m; draft 9.5 m.

Type: Tanker. MMSI: 319182000.

Date/timePositionNaut miles runAvg speedWind from/ knotsBaromVisibWave heightAir tempDewpointWater temp
2014-Nov-13 23:03N 50°07' W 002°10'8113.7
2014-Nov-13 17:05N 50°27' W 000°07'813.8
2014-Nov-13 16:31N 50°30' E 000°05'1313.2
2014-Nov-13 15:33N 50°34' E 000°24'1212.4
2014-Nov-13 14:33N 50°39' E 000°42'1212.0
2014-Nov-13 13:33N 50°46' E 000°57'1211.9
2014-Nov-13 12:32N 50°53' E 001°13'1312.8
2014-Nov-13 11:34N 51°02' E 001°27'1414.2
2014-Nov-13 10:33N 51°12' E 001°43'1413.9
2014-Nov-13 09:34N 51°24' E 001°54'1313.2
2014-Nov-13 08:33N 51°34' E 002°07'2221.3
2014-Nov-13 07:32N 51°50' E 002°30'43611.8
2014-Nov-11 18:30N 57°55' E 009°26'1313.1
2014-Nov-11 17:30N 57°55' E 009°51'1413.7
2014-Nov-11 16:31N 57°55' E 010°16'1313.5
2014-Nov-11 15:33N 57°52' E 010°40'1313.3
2014-Nov-11 14:33N 57°44' E 011°00'1414.3
2014-Nov-11 13:33N 57°34' E 011°19'1414.1
2014-Nov-11 12:33N 57°22' E 011°32'1414.3
2014-Nov-11 11:33N 57°08' E 011°40'15910.6
2014-Nov-10 20:33N 54°29' E 011°37'1312.5
2014-Nov-10 19:33N 54°26' E 011°58'4411.0
2014-Nov-10 15:31N 54°48' E 013°05'5513.9
2014-Nov-10 11:33N 54°41' E 014°40'1413.8
2014-Nov-10 10:33N 54°46' E 015°01'1613.6
2014-Nov-10 09:21N 54°53' E 015°27'  
2014-Nov-07 19:17N 55°40' E 015°46'1114.7
2014-Nov-07 18:33N 55°37' E 015°28'1514.7
2014-Nov-07 17:33N 55°32' E 015°04'1514.8
2014-Nov-07 16:33N 55°24' E 014°41'1514.9
2014-Nov-07 15:33N 55°13' E 014°25'4314.3
2014-Nov-07 12:33N 55°11' E 013°10'1514.7
2014-Nov-07 11:33N 55°16' E 012°45'1111.4
2014-Nov-07 10:34N 55°27' E 012°40'1010.0
2014-Nov-07 09:34N 55°37' E 012°42'1111.2
2014-Nov-07 08:34N 55°48' E 012°42'1211.8
2014-Nov-07 07:34N 56°00' E 012°40'1010.2
2014-Nov-07 06:34N 56°08' E 012°28'1010.3
2014-Nov-07 05:33N 56°14' E 012°13'8 8.3
2014-Nov-07 04:34N 56°19' E 012°02'5611.1
2014-Nov-06 23:34N 57°12' E 011°33'1111.5
2014-Nov-06 22:34N 57°23' E 011°26'1110.9
2014-Nov-06 21:33N 57°32' E 011°14'1111.2
2014-Nov-06 20:33N 57°40' E 010°59'1111.3
2014-Nov-06 19:33N 57°47' E 010°43'1111.0
2014-Nov-06 18:33N 57°50' E 010°23'218 9.4
2014-Nov-05 19:23N 54°43' E 007°02'1012.0
2014-Nov-05 18:33N 54°35' E 007°12'1211.9
2014-Nov-05 17:34N 54°25' E 007°23'1212.2
2014-Nov-05 16:33N 54°15' E 007°35'1312.7
2014-Nov-05 15:33N 54°07' E 007°52'1111.2
2014-Nov-05 14:33N 54°01' E 008°08'1514.6
2014-Nov-05 13:34N 53°58' E 008°32'1313.2
2014-Nov-05 12:33N 53°50' E 008°50'1111.4
2014-Nov-05 11:33N 53°53' E 009°09'9 8.8
2014-Nov-05 10:33N 53°49' E 009°22'9 9.1
2014-Nov-05 09:33N 53°41' E 009°30'9 9.4
2014-Nov-05 08:33N 53°34' E 009°40'1010.4
2014-Nov-05 07:33N 53°33' E 009°58'1 0.7
2014-Nov-05 06:28N 53°32' E 009°59'0 0.0
2014-Nov-05 05:16N 53°32' E 009°59'0 0.0
2014-Nov-05 04:31N 53°32' E 009°59'0 0.0
2014-Nov-05 03:31N 53°32' E 009°59'0 0.0
2014-Nov-05 02:31N 53°32' E 009°59'0 0.0
2014-Nov-05 01:31N 53°32' E 009°59'0 0.0
2014-Nov-05 00:31N 53°32' E 009°59'0 0.0
2014-Nov-04 23:31N 53°32' E 009°59'0 0.0
2014-Nov-04 22:31N 53°32' E 009°59'0 0.0
2014-Nov-04 21:28N 53°32' E 009°59'0 0.0
2014-Nov-04 20:31N 53°32' E 009°59'0 0.0
2014-Nov-04 19:31N 53°32' E 009°59'0 0.0
2014-Nov-04 18:31N 53°32' E 009°59'0 0.0
2014-Nov-04 17:31N 53°32' E 009°59'0 0.0
2014-Nov-04 16:25N 53°32' E 009°59'0 0.0
2014-Nov-04 15:25N 53°32' E 009°59'0 0.0
2014-Nov-04 14:32N 53°32' E 009°59'0 0.0
2014-Nov-04 13:25N 53°32' E 009°59'0 0.0
2014-Nov-04 12:31N 53°32' E 009°59'0 0.0
2014-Nov-04 11:28N 53°32' E 009°59'0 0.0
2014-Nov-04 10:28N 53°32' E 009°59'0 0.0
2014-Nov-04 09:25N 53°32' E 009°59'0 0.0
2014-Nov-04 08:31N 53°32' E 009°59'0 0.0
2014-Nov-04 07:28N 53°32' E 009°59'0 0.0
2014-Nov-04 06:28N 53°32' E 009°59'0 0.0
2014-Nov-04 05:31N 53°32' E 009°59'0 0.0
2014-Nov-04 04:31N 53°32' E 009°59'0 0.0
2014-Nov-04 03:31N 53°32' E 009°59'0 0.0
2014-Nov-04 02:31N 53°32' E 009°59'0 0.0
2014-Nov-04 01:31N 53°32' E 009°59'0 0.0
2014-Nov-04 00:19N 53°32' E 009°59'0 0.0
2014-Nov-03 23:31N 53°32' E 009°59'  

Dump ship's entire track history